aviador You're here:

KFAM Decoded Metar

FARMINGTON in MO, USA
Report Time2018-01-18 10:56:00
UTC Time2018-01-18 11:47:48
Flight Rules vfr VFR
Wind160° at 05 kt
W.Decomp.*RWY 20: 3.7 kt HW 3.3 kt LCW
W.Rank160° ranks 4
Current wind is below 160° avg. (6.6)
Visibility9999 m
Phenomena:N/A
Clouds:N/A
Expected CloudBase > 1,600 ft AGL from Temp-Dew spread
CeilingNone
Temp-9°C (ISA -22)
Dew Point-13°C (73% RH)
AAT-14.1°C
QNH1030 hPa
Density Alt-2,356 ft
Elevation945 ft
Report Wrong Elevation
Raw Report
KFAM 181056Z AUTO 16005KT 10SM CLR M09/M13 A3041 RMK AO2 SLP314
T10941133 FZRANO=

Extra information for KFAM:More info

Metar Taf Metar & Taf Last 4 Metars F.Rules Stats Wind Profile Meteogram Temp Stats Airport Information Weather charts Add Link Nearby VenuesMetar ALERT Operation Metar Decoded Social comments

AIRNAV info for KFAM